createdAt,value
2019-04-02T00:00:25.474Z,7.99
2019-04-02T00:02:57.261Z,8.01
2019-04-02T00:05:28.977Z,7.91
2019-04-02T00:08:00.759Z,7.95
2019-04-02T00:10:32.485Z,8.01
2019-04-02T00:13:04.456Z,7.95
2019-04-02T00:15:36.824Z,7.86
2019-04-02T00:18:08.871Z,7.73
2019-04-02T00:20:40.684Z,7.59
2019-04-02T00:23:12.378Z,7.69
2019-04-02T00:25:44.093Z,7.69
2019-04-02T00:28:15.804Z,7.56
2019-04-02T00:30:47.558Z,7.58
2019-04-02T00:33:20.315Z,7.65
2019-04-02T00:35:52.028Z,7.68
2019-04-02T00:38:25.007Z,7.59
2019-04-02T00:40:56.796Z,7.40
2019-04-02T00:43:28.504Z,7.31
2019-04-02T00:46:00.290Z,7.25
2019-04-02T00:48:32.076Z,7.32
2019-04-02T00:51:03.772Z,7.18
2019-04-02T00:53:35.615Z,7.17
2019-04-02T00:56:07.811Z,7.05
2019-04-02T00:58:39.568Z,7.14
2019-04-02T01:01:11.861Z,7.01
2019-04-02T01:03:43.564Z,7.03
2019-04-02T01:06:15.278Z,7.15
2019-04-02T01:08:46.971Z,7.16
2019-04-02T01:11:18.683Z,7.22
2019-04-02T01:13:50.378Z,7.37
2019-04-02T01:16:22.484Z,7.29
2019-04-02T01:18:55.205Z,7.42
2019-04-02T01:21:27.047Z,7.32
2019-04-02T01:24:00.024Z,7.38
2019-04-02T01:26:31.848Z,7.25
2019-04-02T01:29:18.835Z,7.25
2019-04-02T01:31:51.257Z,7.20
2019-04-02T01:34:22.944Z,7.33
2019-04-02T01:36:54.835Z,7.13
2019-04-02T01:39:26.642Z,7.19
2019-04-02T01:41:58.418Z,7.19
2019-04-02T01:44:30.131Z,7.19
2019-04-02T01:47:01.949Z,7.14
2019-04-02T01:49:33.650Z,7.04
2019-04-02T01:52:05.505Z,7.00
2019-04-02T01:54:37.270Z,6.93
2019-04-02T01:57:09.238Z,6.95
2019-04-02T01:59:41.021Z,7.03
2019-04-02T02:02:12.977Z,6.98
2019-04-02T02:04:44.838Z,7.16
2019-04-02T02:07:16.567Z,7.17
2019-04-02T02:09:48.317Z,7.12
2019-04-02T02:12:20.090Z,7.15
2019-04-02T02:14:51.808Z,7.21
2019-04-02T02:17:23.626Z,7.17
2019-04-02T02:19:55.457Z,7.16
2019-04-02T02:22:27.471Z,7.10
2019-04-02T02:24:59.177Z,7.11
2019-04-02T02:27:30.895Z,7.07
2019-04-02T02:30:02.604Z,7.04
2019-04-02T02:32:36.469Z,7.05
2019-04-02T02:35:09.292Z,7.04
2019-04-02T02:37:43.338Z,6.98
2019-04-02T02:41:11.092Z,6.92
2019-04-02T02:43:43.847Z,6.93
2019-04-02T02:46:15.560Z,6.86
2019-04-02T02:48:47.658Z,6.79
2019-04-02T02:51:20.255Z,6.88
2019-04-02T02:53:52.120Z,6.83
2019-04-02T02:56:24.476Z,6.84
2019-04-02T02:58:56.191Z,6.81
2019-04-02T03:01:28.022Z,6.78
2019-04-02T03:04:00.196Z,6.74
2019-04-02T03:06:33.043Z,6.72
2019-04-02T03:09:06.289Z,6.57
2019-04-02T03:11:38.105Z,6.53
2019-04-02T03:14:11.407Z,6.50
2019-04-02T03:16:43.201Z,6.47
2019-04-02T03:19:15.420Z,6.46
2019-04-02T03:21:47.275Z,6.51
2019-04-02T03:24:19.461Z,6.45
2019-04-02T03:26:52.368Z,6.44
2019-04-02T03:29:24.904Z,6.40
2019-04-02T03:31:57.141Z,6.42
2019-04-02T03:34:28.914Z,6.36
2019-04-02T03:37:00.606Z,6.28
2019-04-02T03:39:32.390Z,6.23
2019-04-02T03:42:04.169Z,6.22
2019-04-02T03:44:35.882Z,6.26
2019-04-02T03:47:07.685Z,6.26
2019-04-02T03:49:39.387Z,6.18
2019-04-02T03:52:11.756Z,6.19
2019-04-02T03:54:43.474Z,6.18
2019-04-02T03:57:15.254Z,6.00
2019-04-02T03:59:46.967Z,5.93
2019-04-02T04:02:18.831Z,5.73
2019-04-02T04:04:50.556Z,5.63
2019-04-02T04:07:22.603Z,5.62
2019-04-02T04:09:54.334Z,5.53
2019-04-02T04:12:26.025Z,5.51
2019-04-02T04:14:57.753Z,5.46
2019-04-02T04:17:29.736Z,5.28
2019-04-02T04:20:01.865Z,5.23
2019-04-02T04:22:33.884Z,5.13
2019-04-02T04:25:05.937Z,5.13
2019-04-02T04:27:37.653Z,5.14
2019-04-02T04:30:09.690Z,5.19
2019-04-02T04:32:41.412Z,5.09
2019-04-02T04:35:13.208Z,5.23
2019-04-02T04:37:44.909Z,5.05
2019-04-02T04:40:16.624Z,5.00
2019-04-02T04:42:50.113Z,5.00
2019-04-02T04:45:22.079Z,4.93
2019-04-02T04:47:54.051Z,5.07
2019-04-02T04:50:25.947Z,5.01
2019-04-02T04:52:57.980Z,4.99
2019-04-02T04:55:29.905Z,4.97
2019-04-02T04:58:01.921Z,5.09
2019-04-02T05:00:34.243Z,4.98
2019-04-02T05:04:03.502Z,4.94
2019-04-02T05:06:34.148Z,4.94
2019-04-02T05:09:07.336Z,4.85
2019-04-02T05:11:39.116Z,5.03
2019-04-02T05:14:13.548Z,5.01
2019-04-02T05:16:46.040Z,5.11
2019-04-02T05:19:18.067Z,5.05
2019-04-02T05:21:49.974Z,5.09
2019-04-02T05:24:21.762Z,5.25
2019-04-02T05:26:53.594Z,5.51
2019-04-02T05:29:25.708Z,5.53
2019-04-02T05:31:57.516Z,5.49
2019-04-02T05:34:29.225Z,5.47
2019-04-02T05:37:01.291Z,5.54
2019-04-02T05:39:33.013Z,5.53
2019-04-02T05:42:05.116Z,5.55
2019-04-02T05:44:38.401Z,5.41
2019-04-02T05:47:10.671Z,5.43
2019-04-02T05:49:42.957Z,5.44
2019-04-02T05:52:14.743Z,5.61
2019-04-02T05:54:46.459Z,5.74
2019-04-02T05:57:19.157Z,5.62
2019-04-02T05:59:50.933Z,5.74
2019-04-02T06:02:23.059Z,5.73
2019-04-02T06:04:54.855Z,5.79
2019-04-02T06:07:26.589Z,5.89
2019-04-02T06:10:00.248Z,6.10
2019-04-02T06:12:31.717Z,6.12
2019-04-02T06:15:03.864Z,6.31
2019-04-02T06:17:35.592Z,6.36
2019-04-02T06:20:08.171Z,6.45
2019-04-02T06:22:39.975Z,6.54
2019-04-02T06:25:13.286Z,6.58
2019-04-02T06:27:48.073Z,6.62
2019-04-02T06:30:20.263Z,6.65
2019-04-02T06:32:51.987Z,6.68
2019-04-02T06:35:23.984Z,6.76
2019-04-02T06:37:55.740Z,6.83
2019-04-02T06:40:27.427Z,6.96
2019-04-02T06:42:59.148Z,7.02
2019-04-02T06:45:30.932Z,7.14
2019-04-02T06:48:25.138Z,7.19
2019-04-02T06:50:57.088Z,7.14
2019-04-02T06:53:28.856Z,7.16
2019-04-02T06:56:00.569Z,7.20
2019-04-02T06:58:32.297Z,7.22
2019-04-02T07:01:20.671Z,7.27
2019-04-02T07:03:37.632Z,7.31
2019-04-02T07:06:09.331Z,7.38
2019-04-02T07:08:47.045Z,7.48
2019-04-02T07:11:14.575Z,7.57
2019-04-02T07:13:46.388Z,7.68
2019-04-02T07:16:18.135Z,7.75
2019-04-02T07:18:49.930Z,7.84
2019-04-02T07:21:21.704Z,7.91
2019-04-02T07:23:53.435Z,8.02
2019-04-02T07:26:25.139Z,8.09
2019-04-02T07:28:57.149Z,8.11
2019-04-02T07:31:28.862Z,8.16
2019-04-02T07:34:02.638Z,8.22
2019-04-02T07:36:36.444Z,8.29
2019-04-02T07:39:09.216Z,8.34
2019-04-02T07:41:41.224Z,8.40
2019-04-02T07:44:13.035Z,8.43
2019-04-02T07:46:45.045Z,8.50
2019-04-02T07:49:18.206Z,8.52
2019-04-02T07:51:54.178Z,8.62
2019-04-02T07:54:23.735Z,8.69
2019-04-02T07:56:55.525Z,8.79
2019-04-02T07:59:27.259Z,8.85
2019-04-02T08:01:59.511Z,8.93
2019-04-02T08:04:31.787Z,9.04
2019-04-02T08:07:03.508Z,9.14
2019-04-02T08:09:35.266Z,9.20
2019-04-02T08:12:07.203Z,9.31
2019-04-02T08:14:39.010Z,9.39
2019-04-02T08:17:12.517Z,9.43
2019-04-02T08:19:44.672Z,9.42
2019-04-02T08:22:16.466Z,9.44
2019-04-02T08:24:48.178Z,9.55
2019-04-02T08:27:20.074Z,9.56
2019-04-02T08:29:51.795Z,9.53
2019-04-02T08:32:23.576Z,9.64
2019-04-02T08:34:55.303Z,9.74
2019-04-02T08:37:27.092Z,9.87
2019-04-02T08:39:58.956Z,9.96
2019-04-02T08:42:31.055Z,10.08
2019-04-02T08:45:04.438Z,10.28
2019-04-02T08:47:36.462Z,10.43
2019-04-02T08:50:08.936Z,10.54
2019-04-02T08:52:40.734Z,10.59
2019-04-02T08:55:12.794Z,10.64
2019-04-02T08:57:54.005Z,10.75
2019-04-02T09:00:21.652Z,10.85
2019-04-02T09:02:53.609Z,10.93
2019-04-02T09:05:32.943Z,11.00
2019-04-02T09:07:58.903Z,11.12
2019-04-02T09:10:30.643Z,11.14
2019-04-02T09:13:02.447Z,11.16
2019-04-02T09:15:34.266Z,11.29
2019-04-02T09:18:06.218Z,11.36
2019-04-02T09:20:38.205Z,11.49
2019-04-02T09:23:10.035Z,11.69
2019-04-02T09:25:41.827Z,11.84
2019-04-02T09:28:13.574Z,11.91
2019-04-02T09:30:45.353Z,12.00
2019-04-02T09:33:17.097Z,12.14
2019-04-02T09:35:48.865Z,12.23
2019-04-02T09:38:20.945Z,12.24
2019-04-02T09:40:52.674Z,12.46
2019-04-02T09:43:24.403Z,12.64
2019-04-02T09:45:56.195Z,12.73
2019-04-02T09:48:28.095Z,12.83
2019-04-02T09:50:59.996Z,13.01
2019-04-02T09:53:31.847Z,12.93
2019-04-02T09:56:06.010Z,13.07
2019-04-02T09:58:37.148Z,13.18
2019-04-02T10:01:10.713Z,13.48
2019-04-02T10:03:43.542Z,13.60
2019-04-02T10:06:15.769Z,13.62
2019-04-02T10:08:47.663Z,13.74
2019-04-02T10:11:19.462Z,13.85
2019-04-02T10:13:51.204Z,13.63
2019-04-02T10:16:23.338Z,13.70
2019-04-02T10:18:55.227Z,13.67
2019-04-02T10:21:27.151Z,13.71
2019-04-02T10:23:58.946Z,13.98
2019-04-02T10:26:30.767Z,14.05
2019-04-02T10:29:02.456Z,14.22
2019-04-02T10:31:34.235Z,14.10
2019-04-02T10:34:06.471Z,14.27
2019-04-02T10:36:38.442Z,14.36
2019-04-02T10:39:14.784Z,14.49
2019-04-02T10:41:46.644Z,14.55
2019-04-02T10:44:18.472Z,14.72
2019-04-02T10:46:51.302Z,14.81
2019-04-02T10:49:23.107Z,14.83
2019-04-02T10:51:55.212Z,14.97
2019-04-02T10:54:26.963Z,15.13
2019-04-02T10:56:59.308Z,15.10
2019-04-02T10:59:31.304Z,15.12
2019-04-02T11:02:04.653Z,15.24
2019-04-02T11:04:38.577Z,15.36
2019-04-02T11:07:14.027Z,15.30
2019-04-02T11:09:45.044Z,15.39
2019-04-02T11:12:16.893Z,15.74
2019-04-02T11:14:48.615Z,15.90
2019-04-02T11:17:20.411Z,15.93
2019-04-02T11:19:54.570Z,16.09
2019-04-02T11:22:25.795Z,16.04
2019-04-02T11:24:57.608Z,15.91
2019-04-02T11:27:29.373Z,15.80
2019-04-02T11:30:01.107Z,16.15
2019-04-02T11:32:32.820Z,16.25
2019-04-02T11:35:06.131Z,16.56
2019-04-02T11:37:38.127Z,16.65
2019-04-02T11:40:14.961Z,16.56
2019-04-02T11:42:46.753Z,16.42
2019-04-02T11:45:18.743Z,16.48
2019-04-02T11:47:50.566Z,16.74
2019-04-02T11:50:22.454Z,17.10
2019-04-02T11:52:54.907Z,17.25
2019-04-02T11:55:26.634Z,17.42
2019-04-02T11:57:58.408Z,17.30
2019-04-02T12:00:31.394Z,17.26
2019-04-02T12:03:03.440Z,17.34
2019-04-02T12:05:36.539Z,17.49
2019-04-02T12:08:14.950Z,17.42
2019-04-02T12:10:42.395Z,17.14
2019-04-02T12:13:14.100Z,17.50
2019-04-02T12:15:50.207Z,17.54
2019-04-02T12:18:19.718Z,17.39
2019-04-02T12:20:51.439Z,17.65
2019-04-02T12:23:23.193Z,17.88
2019-04-02T12:25:54.902Z,17.72
2019-04-02T12:28:26.679Z,17.66
2019-04-02T12:30:58.413Z,17.66
2019-04-02T12:33:30.122Z,17.92
2019-04-02T12:36:04.154Z,18.17
2019-04-02T12:38:35.259Z,18.14
2019-04-02T12:41:06.967Z,18.27
2019-04-02T12:43:38.671Z,18.30
2019-04-02T12:46:10.464Z,18.21
2019-04-02T12:48:43.436Z,18.33
2019-04-02T12:51:15.270Z,18.52
2019-04-02T12:53:46.976Z,18.53
2019-04-02T12:56:19.157Z,18.43
2019-04-02T12:58:50.873Z,18.73
2019-04-02T13:01:22.579Z,18.72
2019-04-02T13:03:54.354Z,18.78
2019-04-02T13:06:26.187Z,18.68
2019-04-02T13:08:57.973Z,18.94
2019-04-02T13:11:31.110Z,18.90
2019-04-02T13:14:04.510Z,19.07
2019-04-02T13:16:49.153Z,19.25
2019-04-02T13:19:11.397Z,19.52
2019-04-02T13:21:43.113Z,19.38
2019-04-02T13:24:21.802Z,19.73
2019-04-02T13:26:48.224Z,19.79
2019-04-02T13:29:19.935Z,19.85
2019-04-02T13:31:52.044Z,19.58
2019-04-02T13:34:23.763Z,19.69
2019-04-02T13:36:55.490Z,19.71
2019-04-02T13:39:27.535Z,19.89
2019-04-02T13:41:59.244Z,20.12
2019-04-02T13:44:32.026Z,20.04
2019-04-02T13:47:03.737Z,20.17
2019-04-02T13:49:35.783Z,20.27
2019-04-02T13:52:07.590Z,19.94
2019-04-02T13:54:39.338Z,19.65
2019-04-02T13:57:11.539Z,19.28
2019-04-02T13:59:43.552Z,19.24
2019-04-02T14:02:15.617Z,18.97
2019-04-02T14:04:47.549Z,19.03
2019-04-02T14:07:19.535Z,18.83
2019-04-02T14:09:51.694Z,18.73
2019-04-02T14:12:25.750Z,18.64
2019-04-02T14:14:56.882Z,18.51
2019-04-02T14:17:29.729Z,18.20
2019-04-02T14:20:01.576Z,17.87
2019-04-02T14:22:33.401Z,17.57
2019-04-02T14:25:05.628Z,17.30
2019-04-02T14:27:37.676Z,16.82
2019-04-02T14:30:09.642Z,16.45
2019-04-02T14:32:43.430Z,15.91
2019-04-02T14:35:15.175Z,16.04
2019-04-02T14:37:46.913Z,16.08
2019-04-02T14:40:18.779Z,16.17
2019-04-02T14:42:50.486Z,16.26
2019-04-02T14:45:22.245Z,16.42
2019-04-02T14:47:53.970Z,16.38
2019-04-02T14:50:30.993Z,16.31
2019-04-02T14:52:59.178Z,16.34
2019-04-02T14:55:30.945Z,16.25
2019-04-02T14:58:02.794Z,16.14
2019-04-02T15:00:34.638Z,15.88
2019-04-02T15:03:06.497Z,15.96
2019-04-02T15:05:38.192Z,16.19
2019-04-02T15:08:10.193Z,16.51
2019-04-02T15:10:41.923Z,16.43
2019-04-02T15:13:14.226Z,16.37
2019-04-02T15:15:46.296Z,16.48
2019-04-02T15:18:18.096Z,16.35
2019-04-02T15:20:50.945Z,16.33
2019-04-02T15:23:22.659Z,16.36
2019-04-02T15:25:54.680Z,16.38
2019-04-02T15:28:26.549Z,16.44
2019-04-02T15:30:59.313Z,16.47
2019-04-02T15:33:31.018Z,16.50
2019-04-02T15:36:02.718Z,16.26
2019-04-02T15:38:34.419Z,16.33
2019-04-02T15:41:06.308Z,16.31
2019-04-02T15:43:38.052Z,16.32
2019-04-02T15:46:09.757Z,16.26
2019-04-02T15:48:41.817Z,16.25
2019-04-02T15:51:13.509Z,16.29
2019-04-02T15:53:45.534Z,16.22
2019-04-02T15:56:17.233Z,16.43
2019-04-02T15:58:48.943Z,16.76
2019-04-02T16:01:20.653Z,17.15
2019-04-02T16:03:52.404Z,17.35
2019-04-02T16:06:24.628Z,17.38
2019-04-02T16:08:56.518Z,17.59
2019-04-02T16:11:28.215Z,17.62
2019-04-02T16:13:59.921Z,17.43
2019-04-02T16:16:32.697Z,17.22
2019-04-02T16:19:04.577Z,17.19
2019-04-02T16:21:39.320Z,17.17
2019-04-02T16:24:11.492Z,17.14
2019-04-02T16:26:44.501Z,17.11
2019-04-02T16:29:16.767Z,17.43
2019-04-02T16:31:48.467Z,17.41
2019-04-02T16:34:20.362Z,17.09
2019-04-02T16:36:52.086Z,16.96
2019-04-02T16:39:23.999Z,16.87
2019-04-02T16:41:55.940Z,16.79
2019-04-02T16:44:28.652Z,16.65
2019-04-02T16:47:00.332Z,16.56
2019-04-02T16:49:32.032Z,16.31
2019-04-02T16:52:03.889Z,16.16
2019-04-02T16:54:35.594Z,16.10
2019-04-02T16:57:07.770Z,16.04
2019-04-02T16:59:39.823Z,15.93
2019-04-02T17:02:13.059Z,15.80
2019-04-02T17:04:44.765Z,15.71
2019-04-02T17:07:25.484Z,15.62
2019-04-02T17:09:50.259Z,15.46
2019-04-02T17:12:21.954Z,15.38
2019-04-02T17:14:54.317Z,15.33
2019-04-02T17:17:26.087Z,15.13
2019-04-02T17:19:57.782Z,15.03
2019-04-02T17:22:30.108Z,14.96
2019-04-02T17:25:01.941Z,14.99
2019-04-02T17:27:34.166Z,14.95
2019-04-02T17:30:07.398Z,14.87
2019-04-02T17:32:39.306Z,14.86
2019-04-02T17:35:12.642Z,14.80
2019-04-02T17:37:44.513Z,14.80
2019-04-02T17:40:16.547Z,14.66
2019-04-02T17:42:50.046Z,14.63
2019-04-02T17:45:22.912Z,14.61
2019-04-02T17:47:56.004Z,14.57
2019-04-02T17:50:29.253Z,14.43
2019-04-02T17:53:01.018Z,14.25
2019-04-02T17:55:33.807Z,13.98
2019-04-02T17:58:05.904Z,13.80
2019-04-02T18:00:39.814Z,13.64
2019-04-02T18:03:11.494Z,13.54
2019-04-02T18:05:44.449Z,13.28
2019-04-02T18:08:16.169Z,13.28
2019-04-02T18:10:47.949Z,12.95
2019-04-02T18:13:19.666Z,12.81
2019-04-02T18:15:51.372Z,12.83
2019-04-02T18:18:23.072Z,12.73
2019-04-02T18:20:55.063Z,12.60
2019-04-02T18:23:26.767Z,12.48
2019-04-02T18:25:58.477Z,12.39
2019-04-02T18:28:30.171Z,12.35
2019-04-02T18:31:02.478Z,12.29
2019-04-02T18:33:34.487Z,12.21
2019-04-02T18:36:06.344Z,12.11
2019-04-02T18:38:38.039Z,12.03
2019-04-02T18:41:10.215Z,11.93
2019-04-02T18:43:42.233Z,11.89
2019-04-02T18:46:15.350Z,11.83
2019-04-02T18:48:47.797Z,11.77
2019-04-02T18:51:19.594Z,11.69
2019-04-02T18:53:51.523Z,11.65
2019-04-02T18:56:25.907Z,11.53
2019-04-02T18:59:00.081Z,11.29
2019-04-02T19:01:32.907Z,11.31
2019-04-02T19:04:05.765Z,11.32
2019-04-02T19:06:37.475Z,11.37
2019-04-02T19:09:18.702Z,11.32
2019-04-02T19:11:46.261Z,11.43
2019-04-02T19:14:17.970Z,11.73
2019-04-02T19:16:49.697Z,12.14
2019-04-02T19:19:22.689Z,12.07
2019-04-02T19:21:54.709Z,12.31
2019-04-02T19:24:26.408Z,12.58
2019-04-02T19:26:58.411Z,12.72
2019-04-02T19:29:30.527Z,12.78
2019-04-02T19:32:02.697Z,12.58
2019-04-02T19:34:34.479Z,12.70
2019-04-02T19:37:06.330Z,12.75
2019-04-02T19:39:38.026Z,12.85
2019-04-02T19:42:09.728Z,12.65
2019-04-02T19:44:41.427Z,12.80
2019-04-02T19:47:13.131Z,12.88
2019-04-02T19:49:44.918Z,12.94
2019-04-02T19:52:17.111Z,13.10
2019-04-02T19:54:48.818Z,13.12
2019-04-02T19:57:20.847Z,13.16
2019-04-02T19:59:52.644Z,13.20
2019-04-02T20:02:24.373Z,13.24
2019-04-02T20:04:56.373Z,13.24
2019-04-02T20:07:28.096Z,13.20
2019-04-02T20:09:59.784Z,13.07
2019-04-02T20:12:31.495Z,12.87
2019-04-02T20:15:04.606Z,12.65
2019-04-02T20:17:36.764Z,12.44
2019-04-02T20:20:09.812Z,12.10
2019-04-02T20:22:42.148Z,11.77
2019-04-02T20:25:15.251Z,11.44
2019-04-02T20:27:47.681Z,11.44
2019-04-02T20:30:19.455Z,11.47
2019-04-02T20:32:51.167Z,11.61
2019-04-02T20:35:24.092Z,11.60
2019-04-02T20:37:57.923Z,11.57
2019-04-02T20:40:29.942Z,11.71
2019-04-02T20:43:01.650Z,11.48
2019-04-02T20:45:33.356Z,11.30
2019-04-02T20:48:05.149Z,11.20
2019-04-02T20:50:38.782Z,11.09
2019-04-02T20:53:16.614Z,11.13
2019-04-02T20:55:45.301Z,11.12
2019-04-02T20:58:17.155Z,11.26
2019-04-02T21:00:48.948Z,11.16
2019-04-02T21:03:21.728Z,11.10
2019-04-02T21:05:57.543Z,10.95
2019-04-02T21:08:27.161Z,11.11
2019-04-02T21:11:09.584Z,11.22
2019-04-02T21:13:32.261Z,11.44
2019-04-02T21:16:04.153Z,11.56
2019-04-02T21:18:35.848Z,11.62
2019-04-02T21:21:07.572Z,11.59
2019-04-02T21:23:39.283Z,11.37
2019-04-02T21:26:11.005Z,11.32
2019-04-02T21:28:42.715Z,11.39
2019-04-02T21:31:15.534Z,11.62
2019-04-02T21:33:47.492Z,11.71
2019-04-02T21:36:19.540Z,11.62
2019-04-02T21:38:51.235Z,11.51
2019-04-02T21:41:24.852Z,11.70
2019-04-02T21:43:56.363Z,11.49
2019-04-02T21:46:28.047Z,11.40
2019-04-02T21:49:00.815Z,11.29
2019-04-02T21:51:32.732Z,11.21
2019-04-02T21:54:04.609Z,11.22
2019-04-02T21:56:36.384Z,11.15
2019-04-02T21:59:08.089Z,11.04
2019-04-02T22:01:40.664Z,11.09
2019-04-02T22:04:12.765Z,11.14
2019-04-02T22:06:44.565Z,11.22
2019-04-02T22:09:16.360Z,11.42
2019-04-02T22:11:48.069Z,11.53
2019-04-02T22:14:19.774Z,11.55
2019-04-02T22:16:51.746Z,11.56
2019-04-02T22:19:23.510Z,11.60
2019-04-02T22:21:55.238Z,11.59
2019-04-02T22:24:26.950Z,11.59
2019-04-02T22:26:59.441Z,11.65
2019-04-02T22:29:31.130Z,11.56
2019-04-02T22:32:22.054Z,11.70
2019-04-02T22:34:54.497Z,11.78
2019-04-02T22:37:26.642Z,11.92
2019-04-02T22:39:58.322Z,11.86
2019-04-02T22:42:30.027Z,11.63
2019-04-02T22:45:01.741Z,11.69
2019-04-02T22:47:33.454Z,11.83
2019-04-02T22:50:05.417Z,11.74
2019-04-02T22:52:37.123Z,11.67
2019-04-02T22:55:09.182Z,11.77
2019-04-02T22:57:40.966Z,11.72
2019-04-02T23:00:13.280Z,11.74
2019-04-02T23:02:45.446Z,11.75
2019-04-02T23:05:17.249Z,11.67
2019-04-02T23:07:49.003Z,11.64
2019-04-02T23:10:20.692Z,11.62
2019-04-02T23:12:52.411Z,11.77
2019-04-02T23:15:24.246Z,11.86
2019-04-02T23:17:56.537Z,11.67
2019-04-02T23:20:28.450Z,11.75
2019-04-02T23:23:00.395Z,11.51
2019-04-02T23:25:32.478Z,11.38
2019-04-02T23:28:04.414Z,11.32
2019-04-02T23:30:36.111Z,11.30
2019-04-02T23:33:08.075Z,11.03
2019-04-02T23:35:39.812Z,11.17
2019-04-02T23:38:11.743Z,11.26
2019-04-02T23:40:43.445Z,11.34
2019-04-02T23:43:15.152Z,11.28
2019-04-02T23:45:46.853Z,11.29
2019-04-02T23:48:18.631Z,11.34
2019-04-02T23:50:50.758Z,11.56
2019-04-02T23:53:22.509Z,11.37
2019-04-02T23:55:54.321Z,11.61
2019-04-02T23:58:26.023Z,11.51
